sensor_id;sensor_type;location;lat;lon;timestamp;temperature;humidity
24902;DHT22;31328;51.402;0.016;2022-07-10T00:00:48;17.30;90.20
24902;DHT22;31328;51.402;0.016;2022-07-10T00:03:15;17.30;90.30
24902;DHT22;31328;51.402;0.016;2022-07-10T00:05:41;17.30;90.80
24902;DHT22;31328;51.402;0.016;2022-07-10T00:08:07;17.20;90.50
24902;DHT22;31328;51.402;0.016;2022-07-10T00:10:34;17.20;90.60
24902;DHT22;31328;51.402;0.016;2022-07-10T00:13:01;17.20;90.70
24902;DHT22;31328;51.402;0.016;2022-07-10T00:15:28;17.10;90.70
24902;DHT22;31328;51.402;0.016;2022-07-10T00:17:54;17.10;90.80
24902;DHT22;31328;51.402;0.016;2022-07-10T00:20:20;17.10;90.90
24902;DHT22;31328;51.402;0.016;2022-07-10T00:22:47;17.10;90.90
24902;DHT22;31328;51.402;0.016;2022-07-10T00:25:13;17.00;91.00
24902;DHT22;31328;51.402;0.016;2022-07-10T00:27:40;17.00;91.10
24902;DHT22;31328;51.402;0.016;2022-07-10T00:30:11;17.00;91.20
24902;DHT22;31328;51.402;0.016;2022-07-10T00:32:38;16.90;91.20
24902;DHT22;31328;51.402;0.016;2022-07-10T00:35:05;16.90;91.30
24902;DHT22;31328;51.402;0.016;2022-07-10T00:37:32;16.90;91.40
24902;DHT22;31328;51.402;0.016;2022-07-10T00:39:59;16.80;91.40
24902;DHT22;31328;51.402;0.016;2022-07-10T00:42:26;16.80;91.50
24902;DHT22;31328;51.402;0.016;2022-07-10T00:44:53;16.70;91.50
24902;DHT22;31328;51.402;0.016;2022-07-10T00:47:19;16.70;91.60
24902;DHT22;31328;51.402;0.016;2022-07-10T00:49:46;16.70;91.70
24902;DHT22;31328;51.402;0.016;2022-07-10T00:52:16;16.60;91.70
24902;DHT22;31328;51.402;0.016;2022-07-10T00:54:45;16.60;91.80
24902;DHT22;31328;51.402;0.016;2022-07-10T00:57:13;16.60;91.90
24902;DHT22;31328;51.402;0.016;2022-07-10T00:59:41;16.60;91.90
24902;DHT22;31328;51.402;0.016;2022-07-10T01:02:07;16.50;91.90
24902;DHT22;31328;51.402;0.016;2022-07-10T01:04:34;16.50;91.90
24902;DHT22;31328;51.402;0.016;2022-07-10T01:07:00;16.50;92.00
24902;DHT22;31328;51.402;0.016;2022-07-10T01:09:27;16.50;92.10
24902;DHT22;31328;51.402;0.016;2022-07-10T01:11:56;16.50;92.10
24902;DHT22;31328;51.402;0.016;2022-07-10T01:14:24;16.40;92.10
24902;DHT22;31328;51.402;0.016;2022-07-10T01:16:52;16.40;92.20
24902;DHT22;31328;51.402;0.016;2022-07-10T01:19:20;16.40;92.20
24902;DHT22;31328;51.402;0.016;2022-07-10T01:21:46;16.30;92.20
24902;DHT22;31328;51.402;0.016;2022-07-10T01:24:12;16.30;92.30
24902;DHT22;31328;51.402;0.016;2022-07-10T01:26:39;16.30;92.40
24902;DHT22;31328;51.402;0.016;2022-07-10T01:29:10;16.30;92.40
24902;DHT22;31328;51.402;0.016;2022-07-10T01:31:37;16.20;92.40
24902;DHT22;31328;51.402;0.016;2022-07-10T01:34:07;16.20;92.40
24902;DHT22;31328;51.402;0.016;2022-07-10T01:36:37;16.20;92.50
24902;DHT22;31328;51.402;0.016;2022-07-10T01:39:05;16.10;92.50
24902;DHT22;31328;51.402;0.016;2022-07-10T01:41:31;16.10;92.60
24902;DHT22;31328;51.402;0.016;2022-07-10T01:43:58;16.10;92.60
24902;DHT22;31328;51.402;0.016;2022-07-10T01:46:25;16.10;92.70
24902;DHT22;31328;51.402;0.016;2022-07-10T01:48:52;16.00;92.70
24902;DHT22;31328;51.402;0.016;2022-07-10T01:51:19;16.00;92.70
24902;DHT22;31328;51.402;0.016;2022-07-10T01:53:46;16.00;92.80
24902;DHT22;31328;51.402;0.016;2022-07-10T01:56:14;16.00;92.90
24902;DHT22;31328;51.402;0.016;2022-07-10T01:58:41;15.90;92.90
24902;DHT22;31328;51.402;0.016;2022-07-10T02:01:07;15.90;92.90
24902;DHT22;31328;51.402;0.016;2022-07-10T02:03:34;15.90;92.90
24902;DHT22;31328;51.402;0.016;2022-07-10T02:06:19;15.80;93.00
24902;DHT22;31328;51.402;0.016;2022-07-10T02:08:46;15.80;93.10
24902;DHT22;31328;51.402;0.016;2022-07-10T02:11:12;15.80;93.10
24902;DHT22;31328;51.402;0.016;2022-07-10T02:13:39;15.80;93.10
24902;DHT22;31328;51.402;0.016;2022-07-10T02:16:05;15.70;93.10
24902;DHT22;31328;51.402;0.016;2022-07-10T02:18:32;15.70;93.20
24902;DHT22;31328;51.402;0.016;2022-07-10T02:20:58;15.60;93.20
24902;DHT22;31328;51.402;0.016;2022-07-10T02:23:25;15.60;93.30
24902;DHT22;31328;51.402;0.016;2022-07-10T02:25:51;15.60;93.30
24902;DHT22;31328;51.402;0.016;2022-07-10T02:28:17;15.60;93.40
24902;DHT22;31328;51.402;0.016;2022-07-10T02:30:44;15.60;93.40
24902;DHT22;31328;51.402;0.016;2022-07-10T02:33:10;15.60;93.50
24902;DHT22;31328;51.402;0.016;2022-07-10T02:35:36;15.60;93.50
24902;DHT22;31328;51.402;0.016;2022-07-10T02:38:03;15.50;93.50
24902;DHT22;31328;51.402;0.016;2022-07-10T02:40:29;15.50;93.50
24902;DHT22;31328;51.402;0.016;2022-07-10T02:42:56;15.40;93.50
24902;DHT22;31328;51.402;0.016;2022-07-10T02:45:22;15.40;93.60
24902;DHT22;31328;51.402;0.016;2022-07-10T02:47:49;15.40;93.70
24902;DHT22;31328;51.402;0.016;2022-07-10T02:50:15;15.30;93.70
24902;DHT22;31328;51.402;0.016;2022-07-10T02:52:41;15.40;93.70
24902;DHT22;31328;51.402;0.016;2022-07-10T02:55:08;15.30;93.70
24902;DHT22;31328;51.402;0.016;2022-07-10T02:57:34;15.30;94.10
24902;DHT22;31328;51.402;0.016;2022-07-10T03:00:01;15.30;93.80
24902;DHT22;31328;51.402;0.016;2022-07-10T03:02:27;15.20;93.80
24902;DHT22;31328;51.402;0.016;2022-07-10T03:04:54;15.20;93.90
24902;DHT22;31328;51.402;0.016;2022-07-10T03:07:20;15.20;93.90
24902;DHT22;31328;51.402;0.016;2022-07-10T03:09:46;15.20;94.00
24902;DHT22;31328;51.402;0.016;2022-07-10T03:12:13;15.10;94.00
24902;DHT22;31328;51.402;0.016;2022-07-10T03:14:39;15.10;94.00
24902;DHT22;31328;51.402;0.016;2022-07-10T03:17:05;15.10;94.10
24902;DHT22;31328;51.402;0.016;2022-07-10T03:19:32;15.10;94.10
24902;DHT22;31328;51.402;0.016;2022-07-10T03:21:59;15.10;94.20
24902;DHT22;31328;51.402;0.016;2022-07-10T03:24:26;15.10;94.20
24902;DHT22;31328;51.402;0.016;2022-07-10T03:26:52;15.00;94.20
24902;DHT22;31328;51.402;0.016;2022-07-10T03:29:18;15.10;94.30
24902;DHT22;31328;51.402;0.016;2022-07-10T03:31:45;15.00;94.30
24902;DHT22;31328;51.402;0.016;2022-07-10T03:34:11;15.00;94.30
24902;DHT22;31328;51.402;0.016;2022-07-10T03:36:38;15.00;94.30
24902;DHT22;31328;51.402;0.016;2022-07-10T03:39:04;15.00;94.40
24902;DHT22;31328;51.402;0.016;2022-07-10T03:41:31;15.00;94.30
24902;DHT22;31328;51.402;0.016;2022-07-10T03:43:57;15.00;94.30
24902;DHT22;31328;51.402;0.016;2022-07-10T03:46:23;15.00;94.40
24902;DHT22;31328;51.402;0.016;2022-07-10T03:48:50;14.90;94.40
24902;DHT22;31328;51.402;0.016;2022-07-10T03:51:16;14.90;94.40
24902;DHT22;31328;51.402;0.016;2022-07-10T03:53:42;14.90;94.50
24902;DHT22;31328;51.402;0.016;2022-07-10T03:56:09;14.90;94.50
24902;DHT22;31328;51.402;0.016;2022-07-10T03:58:55;14.90;94.50
24902;DHT22;31328;51.402;0.016;2022-07-10T04:01:22;14.90;94.50
24902;DHT22;31328;51.402;0.016;2022-07-10T04:03:48;14.90;94.60
24902;DHT22;31328;51.402;0.016;2022-07-10T04:06:15;14.90;94.60
24902;DHT22;31328;51.402;0.016;2022-07-10T04:08:41;14.90;94.70
24902;DHT22;31328;51.402;0.016;2022-07-10T04:11:07;14.90;94.70
24902;DHT22;31328;51.402;0.016;2022-07-10T04:13:34;14.90;94.70
24902;DHT22;31328;51.402;0.016;2022-07-10T04:16:00;14.90;94.70
24902;DHT22;31328;51.402;0.016;2022-07-10T04:18:26;14.90;94.80
24902;DHT22;31328;51.402;0.016;2022-07-10T04:20:53;14.90;94.80
24902;DHT22;31328;51.402;0.016;2022-07-10T04:23:19;14.90;94.80
24902;DHT22;31328;51.402;0.016;2022-07-10T04:25:45;14.80;94.80
24902;DHT22;31328;51.402;0.016;2022-07-10T04:28:11;14.80;94.90
24902;DHT22;31328;51.402;0.016;2022-07-10T04:30:38;14.80;94.90
24902;DHT22;31328;51.402;0.016;2022-07-10T04:33:04;14.80;94.90
24902;DHT22;31328;51.402;0.016;2022-07-10T04:35:31;14.80;94.90
24902;DHT22;31328;51.402;0.016;2022-07-10T04:37:57;14.80;95.00
24902;DHT22;31328;51.402;0.016;2022-07-10T04:40:23;14.80;95.00
24902;DHT22;31328;51.402;0.016;2022-07-10T04:42:50;14.80;95.00
24902;DHT22;31328;51.402;0.016;2022-07-10T04:45:16;14.80;95.00
24902;DHT22;31328;51.402;0.016;2022-07-10T04:47:42;14.80;95.10
24902;DHT22;31328;51.402;0.016;2022-07-10T04:50:09;14.80;95.20
24902;DHT22;31328;51.402;0.016;2022-07-10T04:52:35;14.80;95.20
24902;DHT22;31328;51.402;0.016;2022-07-10T04:55:02;14.80;95.20
24902;DHT22;31328;51.402;0.016;2022-07-10T04:57:28;14.80;95.20
24902;DHT22;31328;51.402;0.016;2022-07-10T04:59:55;14.80;95.30
24902;DHT22;31328;51.402;0.016;2022-07-10T05:02:23;14.80;95.30
24902;DHT22;31328;51.402;0.016;2022-07-10T05:04:49;14.80;95.30
24902;DHT22;31328;51.402;0.016;2022-07-10T05:07:16;14.80;95.30
24902;DHT22;31328;51.402;0.016;2022-07-10T05:09:42;14.80;95.30
24902;DHT22;31328;51.402;0.016;2022-07-10T05:12:08;14.90;95.40
24902;DHT22;31328;51.402;0.016;2022-07-10T05:14:35;14.80;95.30
24902;DHT22;31328;51.402;0.016;2022-07-10T05:17:01;14.90;95.40
24902;DHT22;31328;51.402;0.016;2022-07-10T05:19:28;14.90;95.40
24902;DHT22;31328;51.402;0.016;2022-07-10T05:21:54;14.90;95.40
24902;DHT22;31328;51.402;0.016;2022-07-10T05:24:21;14.90;95.40
24902;DHT22;31328;51.402;0.016;2022-07-10T05:26:47;15.00;95.40
24902;DHT22;31328;51.402;0.016;2022-07-10T05:29:14;15.00;95.50
24902;DHT22;31328;51.402;0.016;2022-07-10T05:31:40;15.00;95.40
24902;DHT22;31328;51.402;0.016;2022-07-10T05:34:06;15.10;95.40
24902;DHT22;31328;51.402;0.016;2022-07-10T05:36:33;15.10;95.40
24902;DHT22;31328;51.402;0.016;2022-07-10T05:38:59;15.10;95.50
24902;DHT22;31328;51.402;0.016;2022-07-10T05:41:25;15.20;95.50
24902;DHT22;31328;51.402;0.016;2022-07-10T05:43:52;15.30;95.50
24902;DHT22;31328;51.402;0.016;2022-07-10T05:46:18;15.30;95.50
24902;DHT22;31328;51.402;0.016;2022-07-10T05:48:44;15.40;95.20
24902;DHT22;31328;51.402;0.016;2022-07-10T05:51:11;15.50;95.10
24902;DHT22;31328;51.402;0.016;2022-07-10T05:53:38;15.60;95.00
24902;DHT22;31328;51.402;0.016;2022-07-10T05:56:04;15.70;94.90
24902;DHT22;31328;51.402;0.016;2022-07-10T05:58:31;15.80;94.80
24902;DHT22;31328;51.402;0.016;2022-07-10T06:00:57;15.90;94.60
24902;DHT22;31328;51.402;0.016;2022-07-10T06:03:24;15.90;94.40
24902;DHT22;31328;51.402;0.016;2022-07-10T06:05:50;16.00;94.30
24902;DHT22;31328;51.402;0.016;2022-07-10T06:08:18;16.10;94.30
24902;DHT22;31328;51.402;0.016;2022-07-10T06:10:45;16.20;93.90
24902;DHT22;31328;51.402;0.016;2022-07-10T06:13:11;16.20;93.80
24902;DHT22;31328;51.402;0.016;2022-07-10T06:15:38;16.30;93.70
24902;DHT22;31328;51.402;0.016;2022-07-10T06:18:05;16.40;93.50
24902;DHT22;31328;51.402;0.016;2022-07-10T06:20:31;16.50;93.30
24902;DHT22;31328;51.402;0.016;2022-07-10T06:22:58;16.60;93.20
24902;DHT22;31328;51.402;0.016;2022-07-10T06:25:26;16.80;93.60
24902;DHT22;31328;51.402;0.016;2022-07-10T06:27:52;17.10;93.00
24902;DHT22;31328;51.402;0.016;2022-07-10T06:30:18;17.40;92.90
24902;DHT22;31328;51.402;0.016;2022-07-10T06:32:45;17.60;92.30
24902;DHT22;31328;51.402;0.016;2022-07-10T06:35:11;17.80;91.90
24902;DHT22;31328;51.402;0.016;2022-07-10T06:37:38;17.90;91.60
24902;DHT22;31328;51.402;0.016;2022-07-10T06:40:05;17.90;91.50
24902;DHT22;31328;51.402;0.016;2022-07-10T06:42:31;17.90;91.50
24902;DHT22;31328;51.402;0.016;2022-07-10T06:45:00;17.90;91.40
24902;DHT22;31328;51.402;0.016;2022-07-10T06:47:26;17.90;91.20
24902;DHT22;31328;51.402;0.016;2022-07-10T06:50:11;17.90;91.10
24902;DHT22;31328;51.402;0.016;2022-07-10T06:52:38;17.90;90.90
24902;DHT22;31328;51.402;0.016;2022-07-10T06:55:05;17.90;91.00
24902;DHT22;31328;51.402;0.016;2022-07-10T06:57:32;17.90;91.00
24902;DHT22;31328;51.402;0.016;2022-07-10T06:59:59;17.90;90.80
24902;DHT22;31328;51.402;0.016;2022-07-10T07:02:25;18.00;90.60
24902;DHT22;31328;51.402;0.016;2022-07-10T07:04:51;18.10;90.60
24902;DHT22;31328;51.402;0.016;2022-07-10T07:07:18;18.10;90.40
24902;DHT22;31328;51.402;0.016;2022-07-10T07:09:44;18.20;90.20
24902;DHT22;31328;51.402;0.016;2022-07-10T07:12:16;18.30;90.20
24902;DHT22;31328;51.402;0.016;2022-07-10T07:14:44;18.40;90.10
24902;DHT22;31328;51.402;0.016;2022-07-10T07:17:10;18.50;89.70
24902;DHT22;31328;51.402;0.016;2022-07-10T07:19:38;18.60;89.40
24902;DHT22;31328;51.402;0.016;2022-07-10T07:22:24;18.60;89.20
24902;DHT22;31328;51.402;0.016;2022-07-10T07:25:10;18.60;89.10
24902;DHT22;31328;51.402;0.016;2022-07-10T07:27:38;18.60;88.90
24902;DHT22;31328;51.402;0.016;2022-07-10T07:30:05;18.60;89.40
24902;DHT22;31328;51.402;0.016;2022-07-10T07:32:33;18.70;88.70
24902;DHT22;31328;51.402;0.016;2022-07-10T07:35:00;18.80;88.80
24902;DHT22;31328;51.402;0.016;2022-07-10T07:40:08;18.80;88.50
24902;DHT22;31328;51.402;0.016;2022-07-10T07:42:35;18.80;88.30
24902;DHT22;31328;51.402;0.016;2022-07-10T07:45:02;18.90;88.30
24902;DHT22;31328;51.402;0.016;2022-07-10T07:47:31;18.90;88.20
24902;DHT22;31328;51.402;0.016;2022-07-10T07:50:02;18.90;88.00
24902;DHT22;31328;51.402;0.016;2022-07-10T07:52:29;19.00;87.90
24902;DHT22;31328;51.402;0.016;2022-07-10T07:54:57;19.00;87.80
24902;DHT22;31328;51.402;0.016;2022-07-10T07:57:23;19.10;87.70
24902;DHT22;31328;51.402;0.016;2022-07-10T07:59:50;19.10;87.50
24902;DHT22;31328;51.402;0.016;2022-07-10T08:02:16;19.10;87.50
24902;DHT22;31328;51.402;0.016;2022-07-10T08:04:42;19.10;88.00
24902;DHT22;31328;51.402;0.016;2022-07-10T08:07:09;19.20;87.40
24902;DHT22;31328;51.402;0.016;2022-07-10T08:09:35;19.20;87.00
24902;DHT22;31328;51.402;0.016;2022-07-10T08:12:02;19.30;86.80
24902;DHT22;31328;51.402;0.016;2022-07-10T08:14:28;19.30;86.60
24902;DHT22;31328;51.402;0.016;2022-07-10T08:16:55;19.30;86.50
24902;DHT22;31328;51.402;0.016;2022-07-10T08:19:21;19.40;86.40
24902;DHT22;31328;51.402;0.016;2022-07-10T08:21:48;19.40;86.20
24902;DHT22;31328;51.402;0.016;2022-07-10T08:24:14;19.50;86.30
24902;DHT22;31328;51.402;0.016;2022-07-10T08:26:41;19.60;86.30
24902;DHT22;31328;51.402;0.016;2022-07-10T08:29:07;19.70;86.10
24902;DHT22;31328;51.402;0.016;2022-07-10T08:31:34;19.80;85.60
24902;DHT22;31328;51.402;0.016;2022-07-10T08:34:00;19.90;85.30
24902;DHT22;31328;51.402;0.016;2022-07-10T08:36:27;20.10;85.20
24902;DHT22;31328;51.402;0.016;2022-07-10T08:38:53;20.30;84.80
24902;DHT22;31328;51.402;0.016;2022-07-10T08:41:25;20.60;84.60
24902;DHT22;31328;51.402;0.016;2022-07-10T08:43:52;20.90;84.00
24902;DHT22;31328;51.402;0.016;2022-07-10T08:46:18;21.20;83.40
24902;DHT22;31328;51.402;0.016;2022-07-10T08:48:49;21.40;82.70
24902;DHT22;31328;51.402;0.016;2022-07-10T08:54:27;22.00;81.40
24902;DHT22;31328;51.402;0.016;2022-07-10T08:56:56;22.20;81.00
24902;DHT22;31328;51.402;0.016;2022-07-10T08:59:23;22.40;80.40
24902;DHT22;31328;51.402;0.016;2022-07-10T09:01:50;22.60;80.00
24902;DHT22;31328;51.402;0.016;2022-07-10T09:04:17;22.80;79.60
24902;DHT22;31328;51.402;0.016;2022-07-10T09:06:47;22.90;78.90
24902;DHT22;31328;51.402;0.016;2022-07-10T09:09:13;23.10;78.40
24902;DHT22;31328;51.402;0.016;2022-07-10T09:11:40;23.20;77.80
24902;DHT22;31328;51.402;0.016;2022-07-10T09:14:10;23.30;77.50
24902;DHT22;31328;51.402;0.016;2022-07-10T09:16:45;23.40;77.90
24902;DHT22;31328;51.402;0.016;2022-07-10T09:19:24;23.60;76.50
24902;DHT22;31328;51.402;0.016;2022-07-10T09:21:52;23.60;76.50
24902;DHT22;31328;51.402;0.016;2022-07-10T09:24:20;23.70;76.20
24902;DHT22;31328;51.402;0.016;2022-07-10T09:29:22;23.80;75.40
24902;DHT22;31328;51.402;0.016;2022-07-10T09:31:53;23.90;75.40
24902;DHT22;31328;51.402;0.016;2022-07-10T09:34:38;24.00;75.20
24902;DHT22;31328;51.402;0.016;2022-07-10T09:37:26;24.20;74.70
24902;DHT22;31328;51.402;0.016;2022-07-10T09:40:00;24.30;73.90
24902;DHT22;31328;51.402;0.016;2022-07-10T09:42:37;24.30;73.80
24902;DHT22;31328;51.402;0.016;2022-07-10T09:47:59;24.50;73.50
24902;DHT22;31328;51.402;0.016;2022-07-10T09:50:34;24.50;72.60
24902;DHT22;31328;51.402;0.016;2022-07-10T09:55:30;24.70;72.60
24902;DHT22;31328;51.402;0.016;2022-07-10T09:57:59;24.70;71.80
24902;DHT22;31328;51.402;0.016;2022-07-10T10:00:33;24.80;71.70
24902;DHT22;31328;51.402;0.016;2022-07-10T10:03:04;24.80;71.40
24902;DHT22;31328;51.402;0.016;2022-07-10T10:08:19;25.00;70.90
24902;DHT22;31328;51.402;0.016;2022-07-10T10:10:48;25.00;70.60
24902;DHT22;31328;51.402;0.016;2022-07-10T10:13:26;25.10;70.50
24902;DHT22;31328;51.402;0.016;2022-07-10T10:15:54;25.10;70.00
24902;DHT22;31328;51.402;0.016;2022-07-10T10:18:23;25.20;70.30
24902;DHT22;31328;51.402;0.016;2022-07-10T10:20:54;25.20;70.60
24902;DHT22;31328;51.402;0.016;2022-07-10T10:23:25;25.40;70.20
24902;DHT22;31328;51.402;0.016;2022-07-10T10:25:53;25.50;69.80
24902;DHT22;31328;51.402;0.016;2022-07-10T10:28:21;25.50;69.60
24902;DHT22;31328;51.402;0.016;2022-07-10T10:31:02;25.60;69.30
24902;DHT22;31328;51.402;0.016;2022-07-10T10:35:59;25.80;69.30
24902;DHT22;31328;51.402;0.016;2022-07-10T10:41:30;26.00;67.80
24902;DHT22;31328;51.402;0.016;2022-07-10T10:46:52;26.20;67.00
24902;DHT22;31328;51.402;0.016;2022-07-10T10:49:21;26.20;66.90
24902;DHT22;31328;51.402;0.016;2022-07-10T10:54:29;26.30;65.50
24902;DHT22;31328;51.402;0.016;2022-07-10T10:57:22;26.40;65.80
24902;DHT22;31328;51.402;0.016;2022-07-10T10:59:53;26.50;64.00
24902;DHT22;31328;51.402;0.016;2022-07-10T11:02:33;26.50;64.00
24902;DHT22;31328;51.402;0.016;2022-07-10T11:15:30;26.90;62.60
24902;DHT22;31328;51.402;0.016;2022-07-10T11:20:38;27.00;62.60
24902;DHT22;31328;51.402;0.016;2022-07-10T11:25:53;27.20;61.90
24902;DHT22;31328;51.402;0.016;2022-07-10T11:28:53;27.10;61.70
24902;DHT22;31328;51.402;0.016;2022-07-10T11:31:23;26.90;61.10
24902;DHT22;31328;51.402;0.016;2022-07-10T11:33:52;26.90;61.60
24902;DHT22;31328;51.402;0.016;2022-07-10T11:36:22;26.80;61.30
24902;DHT22;31328;51.402;0.016;2022-07-10T11:39:03;26.80;60.70
24902;DHT22;31328;51.402;0.016;2022-07-10T11:41:31;26.90;60.20
24902;DHT22;31328;51.402;0.016;2022-07-10T11:44:04;27.00;60.00
24902;DHT22;31328;51.402;0.016;2022-07-10T11:46:32;27.10;59.70
24902;DHT22;31328;51.402;0.016;2022-07-10T11:48:59;27.20;59.60
24902;DHT22;31328;51.402;0.016;2022-07-10T11:51:35;27.30;59.60
24902;DHT22;31328;51.402;0.016;2022-07-10T11:54:04;27.40;59.10
24902;DHT22;31328;51.402;0.016;2022-07-10T11:56:41;27.40;58.70
24902;DHT22;31328;51.402;0.016;2022-07-10T11:59:10;27.50;57.60
24902;DHT22;31328;51.402;0.016;2022-07-10T12:01:43;27.50;57.40
24902;DHT22;31328;51.402;0.016;2022-07-10T12:04:11;27.50;56.50
24902;DHT22;31328;51.402;0.016;2022-07-10T12:06:42;27.50;56.40
24902;DHT22;31328;51.402;0.016;2022-07-10T12:09:17;27.60;56.50
24902;DHT22;31328;51.402;0.016;2022-07-10T12:11:45;27.60;56.50
24902;DHT22;31328;51.402;0.016;2022-07-10T12:14:23;27.60;56.40
24902;DHT22;31328;51.402;0.016;2022-07-10T12:16:52;27.70;56.30
24902;DHT22;31328;51.402;0.016;2022-07-10T12:19:22;27.70;56.20
24902;DHT22;31328;51.402;0.016;2022-07-10T12:21:49;27.80;56.00
24902;DHT22;31328;51.402;0.016;2022-07-10T12:24:16;27.80;55.80
24902;DHT22;31328;51.402;0.016;2022-07-10T12:26:46;27.80;55.30
24902;DHT22;31328;51.402;0.016;2022-07-10T12:29:23;27.90;55.00
24902;DHT22;31328;51.402;0.016;2022-07-10T12:31:52;27.90;54.60
24902;DHT22;31328;51.402;0.016;2022-07-10T12:34:33;28.00;55.00
24902;DHT22;31328;51.402;0.016;2022-07-10T12:37:07;28.00;54.80
24902;DHT22;31328;51.402;0.016;2022-07-10T12:39:36;28.10;54.50
24902;DHT22;31328;51.402;0.016;2022-07-10T12:42:05;28.10;55.20
24902;DHT22;31328;51.402;0.016;2022-07-10T12:44:45;28.20;54.80
24902;DHT22;31328;51.402;0.016;2022-07-10T12:47:19;28.20;54.20
24902;DHT22;31328;51.402;0.016;2022-07-10T12:49:58;28.30;54.30
24902;DHT22;31328;51.402;0.016;2022-07-10T12:52:28;28.30;53.90
24902;DHT22;31328;51.402;0.016;2022-07-10T12:57:59;28.40;53.00
24902;DHT22;31328;51.402;0.016;2022-07-10T13:00:36;28.40;53.20
24902;DHT22;31328;51.402;0.016;2022-07-10T13:03:18;28.40;53.20
24902;DHT22;31328;51.402;0.016;2022-07-10T13:05:45;28.40;53.00
24902;DHT22;31328;51.402;0.016;2022-07-10T13:08:17;28.40;52.90
24902;DHT22;31328;51.402;0.016;2022-07-10T13:10:50;28.50;52.50
24902;DHT22;31328;51.402;0.016;2022-07-10T13:13:17;28.50;52.20
24902;DHT22;31328;51.402;0.016;2022-07-10T13:15:45;28.50;51.80
24902;DHT22;31328;51.402;0.016;2022-07-10T13:18:17;28.60;51.60
24902;DHT22;31328;51.402;0.016;2022-07-10T13:20:44;28.60;51.60
24902;DHT22;31328;51.402;0.016;2022-07-10T13:23:11;28.70;51.60
24902;DHT22;31328;51.402;0.016;2022-07-10T13:25:38;28.70;51.30
24902;DHT22;31328;51.402;0.016;2022-07-10T13:28:09;28.70;51.00
24902;DHT22;31328;51.402;0.016;2022-07-10T13:30:37;28.60;51.10
24902;DHT22;31328;51.402;0.016;2022-07-10T13:33:03;28.60;51.30
24902;DHT22;31328;51.402;0.016;2022-07-10T13:35:30;28.60;51.00
24902;DHT22;31328;51.402;0.016;2022-07-10T13:37:57;28.60;50.80
24902;DHT22;31328;51.402;0.016;2022-07-10T13:40:27;28.60;50.70
24902;DHT22;31328;51.402;0.016;2022-07-10T13:42:54;28.60;50.50
24902;DHT22;31328;51.402;0.016;2022-07-10T13:45:23;28.60;50.60
24902;DHT22;31328;51.402;0.016;2022-07-10T13:47:51;28.70;50.80
24902;DHT22;31328;51.402;0.016;2022-07-10T13:50:19;28.80;50.80
24902;DHT22;31328;51.402;0.016;2022-07-10T13:52:46;28.90;50.70
24902;DHT22;31328;51.402;0.016;2022-07-10T13:55:13;28.90;50.50
24902;DHT22;31328;51.402;0.016;2022-07-10T13:57:39;29.00;50.50
24902;DHT22;31328;51.402;0.016;2022-07-10T14:00:07;29.00;50.30
24902;DHT22;31328;51.402;0.016;2022-07-10T14:02:38;29.10;49.90
24902;DHT22;31328;51.402;0.016;2022-07-10T14:05:05;29.20;50.00
24902;DHT22;31328;51.402;0.016;2022-07-10T14:07:31;29.30;49.80
24902;DHT22;31328;51.402;0.016;2022-07-10T14:09:58;29.30;49.60
24902;DHT22;31328;51.402;0.016;2022-07-10T14:12:25;29.30;49.50
24902;DHT22;31328;51.402;0.016;2022-07-10T14:14:51;29.30;49.20
24902;DHT22;31328;51.402;0.016;2022-07-10T14:17:17;29.20;49.10
24902;DHT22;31328;51.402;0.016;2022-07-10T14:19:44;29.10;49.10
24902;DHT22;31328;51.402;0.016;2022-07-10T14:22:10;29.00;49.10
24902;DHT22;31328;51.402;0.016;2022-07-10T14:24:37;28.90;49.20
24902;DHT22;31328;51.402;0.016;2022-07-10T14:27:03;28.80;49.20
24902;DHT22;31328;51.402;0.016;2022-07-10T14:29:30;28.80;49.20
24902;DHT22;31328;51.402;0.016;2022-07-10T14:31:56;28.80;49.10
24902;DHT22;31328;51.402;0.016;2022-07-10T14:34:32;28.80;48.90
24902;DHT22;31328;51.402;0.016;2022-07-10T14:36:58;28.80;49.00
24902;DHT22;31328;51.402;0.016;2022-07-10T14:39:25;28.90;48.80
24902;DHT22;31328;51.402;0.016;2022-07-10T14:41:51;28.90;48.50
24902;DHT22;31328;51.402;0.016;2022-07-10T14:44:18;28.90;48.30
24902;DHT22;31328;51.402;0.016;2022-07-10T14:46:44;28.80;48.20
24902;DHT22;31328;51.402;0.016;2022-07-10T14:49:11;28.70;48.20
24902;DHT22;31328;51.402;0.016;2022-07-10T14:51:37;28.50;48.40
24902;DHT22;31328;51.402;0.016;2022-07-10T14:54:05;28.40;48.90
24902;DHT22;31328;51.402;0.016;2022-07-10T14:56:31;28.30;48.70
24902;DHT22;31328;51.402;0.016;2022-07-10T14:58:58;28.20;48.60
24902;DHT22;31328;51.402;0.016;2022-07-10T15:01:24;28.20;48.50
24902;DHT22;31328;51.402;0.016;2022-07-10T15:03:51;28.20;48.30
24902;DHT22;31328;51.402;0.016;2022-07-10T15:06:18;28.20;48.00
24902;DHT22;31328;51.402;0.016;2022-07-10T15:08:45;28.30;47.60
24902;DHT22;31328;51.402;0.016;2022-07-10T15:11:11;28.40;47.40
24902;DHT22;31328;51.402;0.016;2022-07-10T15:13:38;28.50;47.20
24902;DHT22;31328;51.402;0.016;2022-07-10T15:16:04;28.60;47.40
24902;DHT22;31328;51.402;0.016;2022-07-10T15:18:31;28.70;47.50
24902;DHT22;31328;51.402;0.016;2022-07-10T15:20:57;28.80;47.60
24902;DHT22;31328;51.402;0.016;2022-07-10T15:23:25;28.90;47.40
24902;DHT22;31328;51.402;0.016;2022-07-10T15:25:54;28.90;47.40
24902;DHT22;31328;51.402;0.016;2022-07-10T15:28:20;28.90;47.40
24902;DHT22;31328;51.402;0.016;2022-07-10T15:30:47;28.90;47.30
24902;DHT22;31328;51.402;0.016;2022-07-10T15:33:13;28.80;47.00
24902;DHT22;31328;51.402;0.016;2022-07-10T15:35:40;28.70;47.00
24902;DHT22;31328;51.402;0.016;2022-07-10T15:38:06;28.60;46.70
24902;DHT22;31328;51.402;0.016;2022-07-10T15:40:33;28.60;46.60
24902;DHT22;31328;51.402;0.016;2022-07-10T15:43:00;28.50;46.60
24902;DHT22;31328;51.402;0.016;2022-07-10T15:45:27;28.60;46.90
24902;DHT22;31328;51.402;0.016;2022-07-10T15:47:53;28.60;46.90
24902;DHT22;31328;51.402;0.016;2022-07-10T15:50:20;28.60;46.80
24902;DHT22;31328;51.402;0.016;2022-07-10T15:52:47;28.60;46.80
24902;DHT22;31328;51.402;0.016;2022-07-10T15:55:13;28.60;46.60
24902;DHT22;31328;51.402;0.016;2022-07-10T15:57:40;28.70;46.40
24902;DHT22;31328;51.402;0.016;2022-07-10T16:00:08;28.70;46.00
24902;DHT22;31328;51.402;0.016;2022-07-10T16:02:35;28.70;45.60
24902;DHT22;31328;51.402;0.016;2022-07-10T16:05:03;28.60;45.50
24902;DHT22;31328;51.402;0.016;2022-07-10T16:07:29;28.60;45.40
24902;DHT22;31328;51.402;0.016;2022-07-10T16:09:56;28.60;45.20
24902;DHT22;31328;51.402;0.016;2022-07-10T16:12:23;28.60;45.20
24902;DHT22;31328;51.402;0.016;2022-07-10T16:14:49;28.60;45.10
24902;DHT22;31328;51.402;0.016;2022-07-10T16:17:17;28.60;45.00
24902;DHT22;31328;51.402;0.016;2022-07-10T16:19:43;28.60;45.00
24902;DHT22;31328;51.402;0.016;2022-07-10T16:22:12;28.70;45.00